createdAt,value
2022-08-01T00:00:30.526Z,29.11
2022-08-01T00:03:20.420Z,29.15
2022-08-01T00:06:09.275Z,29.18
2022-08-01T00:08:58.529Z,29.17
2022-08-01T00:11:47.412Z,29.10
2022-08-01T00:14:45.342Z,29.24
2022-08-01T00:17:34.372Z,29.17
2022-08-01T00:20:26.512Z,29.11
2022-08-01T00:23:15.163Z,29.17
2022-08-01T00:25:57.789Z,29.15
2022-08-01T00:28:46.274Z,29.10
2022-08-01T00:31:35.540Z,29.01
2022-08-01T00:34:24.309Z,28.99
2022-08-01T00:37:06.720Z,28.97
2022-08-01T00:39:55.518Z,28.97
2022-08-01T00:42:44.277Z,29.03
2022-08-01T00:45:26.445Z,29.05
2022-08-01T00:48:16.272Z,29.09
2022-08-01T00:50:59.209Z,29.09
2022-08-01T00:53:51.920Z,29.05
2022-08-01T00:56:47.374Z,29.12
2022-08-01T00:59:36.291Z,29.25
2022-08-01T01:02:20.072Z,29.18
2022-08-01T01:05:08.505Z,28.30
2022-08-01T01:07:57.834Z,28.98
2022-08-01T01:11:01.549Z,29.22
2022-08-01T01:14:01.805Z,29.24
2022-08-01T01:16:54.289Z,29.42
2022-08-01T01:19:41.572Z,29.47
2022-08-01T01:23:04.415Z,29.47
2022-08-01T01:25:46.565Z,29.37
2022-08-01T01:28:35.545Z,29.31
2022-08-01T01:31:21.682Z,29.59
2022-08-01T01:34:13.543Z,29.65
2022-08-01T01:36:58.807Z,29.59
2022-08-01T01:39:54.004Z,29.40
2022-08-01T01:42:38.830Z,29.38
2022-08-01T01:45:28.553Z,29.46
2022-08-01T01:48:12.695Z,29.31
2022-08-01T01:51:02.495Z,29.59
2022-08-01T01:53:45.818Z,29.53
2022-08-01T01:56:36.277Z,29.68
2022-08-01T01:59:18.434Z,29.60
2022-08-01T02:02:16.940Z,29.61
2022-08-01T02:05:01.576Z,29.78
2022-08-01T02:07:51.525Z,30.16
2022-08-01T02:10:41.249Z,30.19
2022-08-01T02:13:30.538Z,30.34
2022-08-01T02:16:14.526Z,30.30
2022-08-01T02:19:03.527Z,30.73
2022-08-01T02:21:56.959Z,30.82
2022-08-01T02:24:47.533Z,30.96
2022-08-01T02:27:42.676Z,30.86
2022-08-01T02:30:34.249Z,30.90
2022-08-01T02:33:22.868Z,30.93
2022-08-01T02:36:32.468Z,31.36
2022-08-01T02:39:21.808Z,31.41
2022-08-01T02:42:15.217Z,30.64
2022-08-01T02:44:58.813Z,30.61
2022-08-01T02:47:49.518Z,30.71
2022-08-01T02:50:40.407Z,30.18
2022-08-01T02:53:43.759Z,31.14
2022-08-01T02:56:46.528Z,32.00
2022-08-01T02:59:36.889Z,32.37
2022-08-01T03:02:23.261Z,32.84
2022-08-01T03:05:07.383Z,32.49
2022-08-01T03:08:02.585Z,32.70
2022-08-01T03:10:55.439Z,32.94
2022-08-01T03:13:39.831Z,33.17
2022-08-01T03:16:30.266Z,32.64
2022-08-01T03:19:20.331Z,32.87
2022-08-01T03:22:08.144Z,32.63
2022-08-01T03:25:00.535Z,32.56
2022-08-01T03:27:51.562Z,32.89
2022-08-01T03:30:35.288Z,32.95
2022-08-01T03:33:24.872Z,33.07
2022-08-01T03:36:09.540Z,32.87
2022-08-01T03:39:01.462Z,33.74
2022-08-01T03:41:52.547Z,33.64
2022-08-01T03:44:43.193Z,33.03
2022-08-01T03:47:33.294Z,33.74
2022-08-01T03:50:24.854Z,33.57
2022-08-01T03:53:09.260Z,33.40
2022-08-01T03:55:59.325Z,33.70
2022-08-01T03:58:50.289Z,33.03
2022-08-01T04:01:33.536Z,32.54
2022-08-01T04:04:22.255Z,33.43
2022-08-01T04:07:08.247Z,33.81
2022-08-01T04:09:57.310Z,33.32
2022-08-01T04:12:39.691Z,33.71
2022-08-01T04:15:22.262Z,33.57
2022-08-01T04:18:11.250Z,33.86
2022-08-01T04:20:55.794Z,33.80
2022-08-01T04:23:44.508Z,34.05
2022-08-01T04:26:35.268Z,34.39
2022-08-01T04:29:26.540Z,33.93
2022-08-01T04:32:09.743Z,34.52
2022-08-01T04:35:00.535Z,34.96
2022-08-01T04:37:44.526Z,34.56
2022-08-01T04:40:35.541Z,34.69
2022-08-01T04:43:17.673Z,34.68
2022-08-01T04:46:07.505Z,34.73
2022-08-01T04:48:57.371Z,35.09
2022-08-01T04:51:39.411Z,33.99
2022-08-01T04:54:30.552Z,34.24
2022-08-01T04:57:25.303Z,34.65
2022-08-01T05:00:08.315Z,33.98
2022-08-01T05:02:57.514Z,34.18
2022-08-01T05:05:45.597Z,34.42
2022-08-01T05:08:28.532Z,34.72
2022-08-01T05:11:10.451Z,34.66
2022-08-01T05:14:00.274Z,35.08
2022-08-01T05:16:43.823Z,34.79
2022-08-01T05:19:32.264Z,34.92
2022-08-01T05:22:21.275Z,35.67
2022-08-01T05:25:03.904Z,35.42
2022-08-01T05:27:54.287Z,35.34
2022-08-01T05:30:36.832Z,35.20
2022-08-01T05:33:25.575Z,34.64
2022-08-01T05:36:07.593Z,35.37
2022-08-01T05:38:56.494Z,35.57
2022-08-01T05:41:45.259Z,35.71
2022-08-01T05:44:34.258Z,35.27
2022-08-01T05:47:16.685Z,35.21
2022-08-01T05:50:05.486Z,35.13
2022-08-01T05:52:54.273Z,35.49
2022-08-01T05:55:37.322Z,35.10
2022-08-01T05:58:26.230Z,35.68
2022-08-01T06:01:08.610Z,35.99
2022-08-01T06:03:57.399Z,35.64
2022-08-01T06:06:46.277Z,36.22
2022-08-01T06:09:29.300Z,34.65
2022-08-01T06:12:18.286Z,35.00
2022-08-01T06:15:00.596Z,35.87
2022-08-01T06:17:49.246Z,36.34
2022-08-01T06:20:31.955Z,35.33
2022-08-01T06:23:31.994Z,35.57
2022-08-01T06:26:23.504Z,35.42
2022-08-01T06:29:05.777Z,34.94
2022-08-01T06:31:54.292Z,34.97
2022-08-01T06:34:42.951Z,35.48
2022-08-01T06:37:24.344Z,35.59
2022-08-01T06:40:17.423Z,35.54
2022-08-01T06:42:59.281Z,35.28
2022-08-01T06:45:42.765Z,34.99
2022-08-01T06:48:31.263Z,34.94
2022-08-01T06:51:17.530Z,34.84
2022-08-01T06:54:06.495Z,34.24
2022-08-01T06:57:01.090Z,34.23
2022-08-01T06:59:55.569Z,34.83
2022-08-01T07:02:45.501Z,34.84
2022-08-01T07:05:28.724Z,35.28
2022-08-01T07:08:17.301Z,35.34
2022-08-01T07:11:01.196Z,35.57
2022-08-01T07:13:50.565Z,35.56
2022-08-01T07:16:32.843Z,35.38
2022-08-01T07:19:21.513Z,34.88
2022-08-01T07:22:04.255Z,35.21
2022-08-01T07:24:54.439Z,35.26
2022-08-01T07:27:37.016Z,35.32
2022-08-01T07:30:25.503Z,35.16
2022-08-01T07:33:15.491Z,35.15
2022-08-01T07:36:05.703Z,35.29
2022-08-01T07:38:50.507Z,35.28
2022-08-01T07:42:04.682Z,35.59
2022-08-01T07:44:41.979Z,35.42
2022-08-01T07:47:37.114Z,35.25
2022-08-01T07:50:25.508Z,35.58
2022-08-01T07:53:07.623Z,34.81
2022-08-01T07:55:56.490Z,35.03
2022-08-01T07:58:52.252Z,35.25
2022-08-01T08:01:47.362Z,35.10
2022-08-01T08:04:37.297Z,35.31
2022-08-01T08:07:19.691Z,35.28
2022-08-01T08:10:08.499Z,35.51
2022-08-01T08:12:59.479Z,35.40
2022-08-01T08:15:48.469Z,35.38
2022-08-01T08:18:30.267Z,34.67
2022-08-01T08:21:12.612Z,34.82
2022-08-01T08:24:19.490Z,35.03
2022-08-01T08:27:02.830Z,34.87
2022-08-01T08:29:51.512Z,35.01
2022-08-01T08:32:33.361Z,35.31
2022-08-01T08:35:40.372Z,34.97
2022-08-01T08:38:32.660Z,34.41
2022-08-01T08:41:20.728Z,35.05
2022-08-01T08:44:05.357Z,35.49
2022-08-01T08:47:00.283Z,35.27
2022-08-01T08:49:52.532Z,35.40
2022-08-01T08:52:35.552Z,35.27
2022-08-01T08:55:26.509Z,35.09
2022-08-01T08:58:08.924Z,34.73
2022-08-01T09:00:57.479Z,34.64
2022-08-01T09:03:53.265Z,34.52
2022-08-01T09:06:42.541Z,34.59
2022-08-01T09:09:24.555Z,34.81
2022-08-01T09:12:13.265Z,33.67
2022-08-01T09:15:03.258Z,33.81
2022-08-01T09:17:52.482Z,34.20
2022-08-01T09:20:36.717Z,33.98
2022-08-01T09:23:54.234Z,33.97
2022-08-01T09:26:41.659Z,33.91
2022-08-01T09:29:38.332Z,34.17
2022-08-01T09:32:22.762Z,33.73
2022-08-01T09:35:36.304Z,33.73
2022-08-01T09:38:37.532Z,34.21
2022-08-01T09:41:37.444Z,33.20
2022-08-01T09:44:42.193Z,33.44
2022-08-01T09:47:40.275Z,33.23
2022-08-01T09:50:29.483Z,33.52
2022-08-01T09:53:30.361Z,33.61
2022-08-01T09:56:20.255Z,33.99
2022-08-01T09:59:02.951Z,34.18
2022-08-01T10:02:03.252Z,33.60
2022-08-01T10:05:03.445Z,34.02
2022-08-01T10:08:08.498Z,33.52
2022-08-01T10:11:18.240Z,33.94
2022-08-01T10:14:00.956Z,34.07
2022-08-01T10:17:05.353Z,34.57
2022-08-01T10:19:52.370Z,34.26
2022-08-01T10:22:44.238Z,34.40
2022-08-01T10:25:42.379Z,33.64
2022-08-01T10:28:34.207Z,33.71
2022-08-01T10:31:30.860Z,34.25
2022-08-01T10:34:20.522Z,34.33
2022-08-01T10:37:07.033Z,33.82
2022-08-01T10:40:14.234Z,34.29
2022-08-01T10:43:00.739Z,34.18
2022-08-01T10:45:52.341Z,34.24
2022-08-01T10:48:48.949Z,34.41
2022-08-01T10:51:52.740Z,34.27
2022-08-01T10:54:36.979Z,34.11
2022-08-01T10:57:27.657Z,33.84
2022-08-01T11:00:10.109Z,34.08
2022-08-01T11:03:12.218Z,34.30
2022-08-01T11:06:07.261Z,34.36
2022-08-01T11:09:03.332Z,33.85
2022-08-01T11:12:25.173Z,34.17
2022-08-01T11:15:14.743Z,33.98
2022-08-01T11:17:57.661Z,34.01
2022-08-01T11:21:57.659Z,33.97
2022-08-01T11:24:06.481Z,34.07
2022-08-01T11:27:33.993Z,34.09
2022-08-01T11:30:20.069Z,33.92
2022-08-01T11:33:11.300Z,33.59
2022-08-01T11:36:56.800Z,33.96
2022-08-01T11:39:38.709Z,34.10
2022-08-01T11:42:35.481Z,34.12
2022-08-01T11:45:18.777Z,34.13
2022-08-01T11:48:07.263Z,34.09
2022-08-01T11:50:51.935Z,34.21
2022-08-01T11:53:42.239Z,34.28
2022-08-01T11:56:31.521Z,34.13
2022-08-01T11:59:15.381Z,33.92
2022-08-01T12:02:10.512Z,33.63
2022-08-01T12:04:58.852Z,33.45
2022-08-01T12:07:52.631Z,33.13
2022-08-01T12:10:49.705Z,33.19
2022-08-01T12:13:38.235Z,33.53
2022-08-01T12:16:33.085Z,33.60
2022-08-01T12:19:16.927Z,33.59
2022-08-01T12:22:23.491Z,33.52
2022-08-01T12:25:14.986Z,33.63
2022-08-01T12:28:03.234Z,33.55
2022-08-01T12:30:46.644Z,33.24
2022-08-01T12:33:35.346Z,33.23
2022-08-01T12:36:24.270Z,33.24
2022-08-01T12:39:07.182Z,33.14
2022-08-01T12:41:59.288Z,33.45
2022-08-01T12:44:49.664Z,33.24
2022-08-01T12:47:33.488Z,33.28
2022-08-01T12:50:24.680Z,33.13
2022-08-01T12:53:07.305Z,33.39
2022-08-01T12:56:00.033Z,33.57
2022-08-01T12:58:50.239Z,33.22
2022-08-01T13:01:32.778Z,33.39
2022-08-01T13:04:27.513Z,33.36
2022-08-01T13:07:16.810Z,33.53
2022-08-01T13:10:00.260Z,33.29
2022-08-01T13:12:52.985Z,33.24
2022-08-01T13:15:44.253Z,33.29
2022-08-01T13:18:40.487Z,33.22
2022-08-01T13:21:28.609Z,33.03
2022-08-01T13:24:21.245Z,33.11
2022-08-01T13:27:13.875Z,33.18
2022-08-01T13:30:02.494Z,33.24
2022-08-01T13:32:52.474Z,33.07
2022-08-01T13:35:41.952Z,33.32
2022-08-01T13:38:23.258Z,33.33
2022-08-01T13:41:12.223Z,33.31
2022-08-01T13:43:58.120Z,33.24
2022-08-01T13:46:51.378Z,33.20
2022-08-01T13:49:38.089Z,32.93
2022-08-01T13:52:29.222Z,32.92
2022-08-01T13:55:11.549Z,33.08
2022-08-01T13:58:00.230Z,33.11
2022-08-01T14:00:42.835Z,33.01
2022-08-01T14:03:38.254Z,32.96
2022-08-01T14:06:28.624Z,32.89
2022-08-01T14:09:18.146Z,32.86
2022-08-01T14:12:12.217Z,32.83
2022-08-01T14:14:58.310Z,32.69
2022-08-01T14:17:48.098Z,32.74
2022-08-01T14:20:30.927Z,32.67
2022-08-01T14:23:19.501Z,32.56
2022-08-01T14:26:09.821Z,32.41
2022-08-01T14:29:01.211Z,32.42
2022-08-01T14:31:50.476Z,32.40
2022-08-01T14:34:39.281Z,32.42
2022-08-01T14:37:21.813Z,32.44
2022-08-01T14:40:14.242Z,32.39
2022-08-01T14:43:25.157Z,32.26
2022-08-01T14:46:11.804Z,32.27
2022-08-01T14:49:00.349Z,32.29
2022-08-01T14:51:42.813Z,32.26
2022-08-01T14:54:31.474Z,32.25
2022-08-01T14:57:20.239Z,32.26
2022-08-01T15:00:09.472Z,32.08
2022-08-01T15:02:51.596Z,32.07
2022-08-01T15:05:46.219Z,32.04
2022-08-01T15:08:28.924Z,32.03
2022-08-01T15:11:23.875Z,32.04
2022-08-01T15:14:24.627Z,32.01
2022-08-01T15:17:13.475Z,31.98
2022-08-01T15:19:57.447Z,32.04
2022-08-01T15:22:48.081Z,32.01
2022-08-01T15:25:40.911Z,32.01
2022-08-01T15:28:25.151Z,31.97
2022-08-01T15:31:14.784Z,31.94
2022-08-01T15:33:56.491Z,31.92
2022-08-01T15:36:45.227Z,31.93
2022-08-01T15:39:30.940Z,31.86
2022-08-01T15:42:27.044Z,31.85
2022-08-01T15:45:20.757Z,31.80
2022-08-01T15:48:18.279Z,31.83
2022-08-01T15:51:00.801Z,31.79
2022-08-01T15:53:51.293Z,31.77
2022-08-01T15:56:40.464Z,31.66
2022-08-01T15:59:22.961Z,31.74
2022-08-01T16:02:12.517Z,31.64
2022-08-01T16:05:07.505Z,31.63
2022-08-01T16:08:01.213Z,31.59
2022-08-01T16:10:43.236Z,31.52
2022-08-01T16:13:31.713Z,31.56
2022-08-01T16:16:16.233Z,31.65
2022-08-01T16:19:05.287Z,31.57
2022-08-01T16:21:49.237Z,31.60
2022-08-01T16:24:38.234Z,31.51
2022-08-01T16:27:23.296Z,31.45
2022-08-01T16:30:15.217Z,31.58
2022-08-01T16:32:59.893Z,31.51
2022-08-01T16:35:54.471Z,31.52
2022-08-01T16:38:43.486Z,31.39
2022-08-01T16:41:32.647Z,31.35
2022-08-01T16:44:33.117Z,31.50
2022-08-01T16:47:22.500Z,31.35
2022-08-01T16:50:12.471Z,31.41
2022-08-01T16:52:54.824Z,31.47
2022-08-01T16:55:49.339Z,31.35
2022-08-01T16:58:32.676Z,31.35
2022-08-01T17:01:58.605Z,31.41
2022-08-01T17:04:30.559Z,31.40
2022-08-01T17:07:26.338Z,31.33
2022-08-01T17:10:18.486Z,31.30
2022-08-01T17:13:07.236Z,31.15
2022-08-01T17:15:59.215Z,31.17
2022-08-01T17:18:41.985Z,31.27
2022-08-01T17:21:30.470Z,31.32
2022-08-01T17:24:16.432Z,31.24
2022-08-01T17:27:08.159Z,31.33
2022-08-01T17:29:52.889Z,31.20
2022-08-01T17:32:44.230Z,31.28
2022-08-01T17:35:33.212Z,31.25
2022-08-01T17:38:15.701Z,31.29
2022-08-01T17:41:05.470Z,31.33
2022-08-01T17:43:54.476Z,31.21
2022-08-01T17:46:36.659Z,31.23
2022-08-01T17:49:52.139Z,31.19
2022-08-01T17:52:29.535Z,31.20
2022-08-01T17:55:56.078Z,31.15
2022-08-01T17:58:49.081Z,31.15
2022-08-01T18:01:30.118Z,31.13
2022-08-01T18:04:28.476Z,31.08
2022-08-01T18:08:01.357Z,31.03
2022-08-01T18:10:40.299Z,31.06
2022-08-01T18:13:30.476Z,31.13
2022-08-01T18:16:14.594Z,31.10
2022-08-01T18:19:03.512Z,31.09
2022-08-01T18:21:52.239Z,31.13
2022-08-01T18:24:35.458Z,31.08
2022-08-01T18:27:24.451Z,31.11
2022-08-01T18:30:26.617Z,31.12
2022-08-01T18:33:15.642Z,31.09
2022-08-01T18:36:05.473Z,31.09
2022-08-01T18:38:47.875Z,31.06
2022-08-01T18:41:36.813Z,31.03
2022-08-01T18:44:19.190Z,31.11
2022-08-01T18:47:08.415Z,31.08
2022-08-01T18:49:57.953Z,31.10
2022-08-01T18:52:46.460Z,31.09
2022-08-01T18:55:35.482Z,31.08
2022-08-01T18:58:17.501Z,31.11
2022-08-01T19:01:06.338Z,31.14
2022-08-01T19:08:31.225Z,31.18
2022-08-01T19:11:20.470Z,31.10
2022-08-01T19:14:10.494Z,31.06
2022-08-01T19:16:52.669Z,31.05
2022-08-01T19:19:42.448Z,31.03
2022-08-01T19:22:24.814Z,31.02
2022-08-01T19:25:13.208Z,31.00
2022-08-01T19:27:59.834Z,30.98
2022-08-01T19:30:53.503Z,30.93
2022-08-01T19:33:40.583Z,31.06
2022-08-01T19:36:34.485Z,31.00
2022-08-01T19:39:19.019Z,30.99
2022-08-01T19:42:13.232Z,31.00
2022-08-01T19:44:56.814Z,31.01
2022-08-01T19:47:51.558Z,31.03
2022-08-01T19:50:42.853Z,31.06
2022-08-01T19:53:32.482Z,31.07
2022-08-01T19:56:22.238Z,31.01
2022-08-01T19:59:05.458Z,31.01
2022-08-01T20:01:55.222Z,31.06
2022-08-01T20:04:38.110Z,30.93
2022-08-01T20:07:27.264Z,30.93
2022-08-01T20:10:23.329Z,30.97
2022-08-01T20:13:19.221Z,30.99
2022-08-01T20:16:04.292Z,30.97
2022-08-01T20:18:54.255Z,30.97
2022-08-01T20:21:37.751Z,30.89
2022-08-01T20:24:30.202Z,30.94
2022-08-01T20:27:23.472Z,30.91
2022-08-01T20:30:07.484Z,30.87
2022-08-01T20:32:58.122Z,30.90
2022-08-01T20:35:53.561Z,30.84
2022-08-01T20:38:42.767Z,30.89
2022-08-01T20:41:26.268Z,30.84
2022-08-01T20:44:16.642Z,30.79
2022-08-01T20:47:00.490Z,30.79
2022-08-01T20:49:50.782Z,30.79
2022-08-01T20:52:32.245Z,30.78
2022-08-01T20:55:20.518Z,30.78
2022-08-01T20:58:04.200Z,30.72
2022-08-01T21:00:55.538Z,30.80
2022-08-01T21:03:51.470Z,30.78
2022-08-01T21:06:46.224Z,30.76
2022-08-01T21:09:36.865Z,30.78
2022-08-01T21:12:59.324Z,30.81
2022-08-01T21:16:23.176Z,30.78
2022-08-01T21:19:28.759Z,30.74
2022-08-01T21:22:27.250Z,30.76
2022-08-01T21:25:20.498Z,30.77
2022-08-01T21:28:03.212Z,30.80
2022-08-01T21:30:53.851Z,30.74
2022-08-01T21:33:38.215Z,30.73
2022-08-01T21:36:53.227Z,30.73
2022-08-01T21:39:36.449Z,30.70
2022-08-01T21:42:24.580Z,30.76
2022-08-01T21:45:09.481Z,30.73
2022-08-01T21:47:53.333Z,30.67
2022-08-01T21:50:46.212Z,30.66
2022-08-01T21:53:43.455Z,30.73
2022-08-01T21:56:58.465Z,30.78
2022-08-01T22:00:01.570Z,30.66
2022-08-01T22:02:55.469Z,30.67
2022-08-01T22:05:50.904Z,30.70
2022-08-01T22:08:46.453Z,30.64
2022-08-01T22:11:31.408Z,30.58
2022-08-01T22:14:24.193Z,30.56
2022-08-01T22:17:06.438Z,30.58
2022-08-01T22:19:56.222Z,30.66
2022-08-01T22:22:52.222Z,30.55
2022-08-01T22:25:36.783Z,30.53
2022-08-01T22:28:26.216Z,30.63
2022-08-01T22:31:08.592Z,30.67
2022-08-01T22:33:57.194Z,30.63
2022-08-01T22:36:46.226Z,30.56
2022-08-01T22:39:39.778Z,30.60
2022-08-01T22:42:22.270Z,30.51
2022-08-01T22:45:40.051Z,30.53
2022-08-01T22:48:34.876Z,30.60
2022-08-01T22:51:27.857Z,30.52
2022-08-01T22:54:26.202Z,30.51
2022-08-01T22:57:37.298Z,30.47
2022-08-01T23:00:27.203Z,30.43
2022-08-01T23:03:34.769Z,30.52
2022-08-01T23:06:26.466Z,30.54
2022-08-01T23:09:09.735Z,30.55
2022-08-01T23:12:00.221Z,30.51
2022-08-01T23:14:56.354Z,30.54
2022-08-01T23:17:46.217Z,30.44
2022-08-01T23:20:29.520Z,30.42
2022-08-01T23:23:18.238Z,30.41
2022-08-01T23:26:15.468Z,30.38
2022-08-01T23:29:06.215Z,30.44
2022-08-01T23:32:03.048Z,30.40
2022-08-01T23:34:54.713Z,30.38
2022-08-01T23:37:37.215Z,30.35
2022-08-01T23:40:26.532Z,30.39
2022-08-01T23:43:16.652Z,30.37
2022-08-01T23:46:03.746Z,30.34
2022-08-01T23:48:54.472Z,30.36
2022-08-01T23:51:43.229Z,30.30
2022-08-01T23:54:25.762Z,30.25
2022-08-01T23:57:14.448Z,30.35
2022-08-01T23:59:58.515Z,30.25
